sensor_id;sensor_type;location;lat;lon;timestamp;pressure;altitude;pressure_sealevel;temperature;humidity
10978;BME280;5542;48.272;10.794;2023-06-14T00:01:01;95254.41;;;15.31;43.61
10978;BME280;5542;48.272;10.794;2023-06-14T00:03:31;95259.75;;;15.21;43.71
10978;BME280;5542;48.272;10.794;2023-06-14T00:05:58;95260.81;;;15.09;43.79
10978;BME280;5542;48.272;10.794;2023-06-14T00:08:25;95255.53;;;15.04;43.95
10978;BME280;5542;48.272;10.794;2023-06-14T00:10:53;95253.94;;;15.03;44.00
10978;BME280;5542;48.272;10.794;2023-06-14T00:13:19;95255.28;;;15.06;44.24
10978;BME280;5542;48.272;10.794;2023-06-14T00:15:46;95255.00;;;15.07;44.36
10978;BME280;5542;48.272;10.794;2023-06-14T00:18:13;95255.53;;;15.04;44.00
10978;BME280;5542;48.272;10.794;2023-06-14T00:20:40;95253.69;;;15.00;44.15
10978;BME280;5542;48.272;10.794;2023-06-14T00:23:07;95252.91;;;14.94;44.12
10978;BME280;5542;48.272;10.794;2023-06-14T00:25:34;95259.53;;;14.87;44.28
10978;BME280;5542;48.272;10.794;2023-06-14T00:28:02;95254.25;;;14.87;44.39
10978;BME280;5542;48.272;10.794;2023-06-14T00:30:29;95250.81;;;14.86;44.27
10978;BME280;5542;48.272;10.794;2023-06-14T00:32:56;95253.44;;;14.86;44.45
10978;BME280;5542;48.272;10.794;2023-06-14T00:35:22;95255.03;;;14.87;44.54
10978;BME280;5542;48.272;10.794;2023-06-14T00:37:49;95251.59;;;14.81;44.59
10978;BME280;5542;48.272;10.794;2023-06-14T00:40:16;95252.13;;;14.73;44.67
10978;BME280;5542;48.272;10.794;2023-06-14T00:42:42;95253.97;;;14.73;44.55
10978;BME280;5542;48.272;10.794;2023-06-14T00:45:11;95253.19;;;14.72;44.78
10978;BME280;5542;48.272;10.794;2023-06-14T00:47:38;95249.22;;;14.70;44.94
10978;BME280;5542;48.272;10.794;2023-06-14T00:50:07;95255.03;;;14.67;44.92
10978;BME280;5542;48.272;10.794;2023-06-14T00:52:36;95250.00;;;14.65;45.01
10978;BME280;5542;48.272;10.794;2023-06-14T00:55:03;95248.16;;;14.60;45.22
10978;BME280;5542;48.272;10.794;2023-06-14T00:57:29;95246.84;;;14.58;45.17
10978;BME280;5542;48.272;10.794;2023-06-14T00:59:56;95245.50;;;14.55;45.19
10978;BME280;5542;48.272;10.794;2023-06-14T01:02:25;95246.03;;;14.52;45.62
10978;BME280;5542;48.272;10.794;2023-06-14T01:04:52;95248.94;;;14.51;45.54
10978;BME280;5542;48.272;10.794;2023-06-14T01:07:27;95254.50;;;14.49;45.52
10978;BME280;5542;48.272;10.794;2023-06-14T01:10:04;95257.94;;;14.50;45.57
10978;BME280;5542;48.272;10.794;2023-06-14T01:12:39;95255.56;;;14.48;45.61
10978;BME280;5542;48.272;10.794;2023-06-14T01:15:10;95250.28;;;14.48;45.84
10978;BME280;5542;48.272;10.794;2023-06-14T01:17:40;95253.13;;;14.47;46.14
10978;BME280;5542;48.272;10.794;2023-06-14T01:20:10;95243.34;;;14.47;46.01
10978;BME280;5542;48.272;10.794;2023-06-14T01:22:50;95243.63;;;14.46;46.32
10978;BME280;5542;48.272;10.794;2023-06-14T01:25:17;95248.13;;;14.45;46.35
10978;BME280;5542;48.272;10.794;2023-06-14T01:27:47;95249.19;;;14.44;46.27
10978;BME280;5542;48.272;10.794;2023-06-14T01:30:14;95252.91;;;14.43;46.21
10978;BME280;5542;48.272;10.794;2023-06-14T01:32:41;95246.53;;;14.39;46.40
10978;BME280;5542;48.272;10.794;2023-06-14T01:35:08;95247.31;;;14.34;46.23
10978;BME280;5542;48.272;10.794;2023-06-14T01:37:35;95245.97;;;14.32;46.26
10978;BME280;5542;48.272;10.794;2023-06-14T01:40:05;95251.28;;;14.32;46.46
10978;BME280;5542;48.272;10.794;2023-06-14T01:42:34;95248.34;;;14.28;46.45
10978;BME280;5542;48.272;10.794;2023-06-14T01:45:02;95243.06;;;14.23;46.80
10978;BME280;5542;48.272;10.794;2023-06-14T01:47:29;95248.91;;;14.20;46.75
10978;BME280;5542;48.272;10.794;2023-06-14T01:49:56;95247.03;;;14.16;46.71
10978;BME280;5542;48.272;10.794;2023-06-14T01:52:23;95244.09;;;14.12;46.69
10978;BME280;5542;48.272;10.794;2023-06-14T01:54:50;95243.84;;;14.08;46.96
10978;BME280;5542;48.272;10.794;2023-06-14T01:57:19;95243.31;;;14.06;47.03
10978;BME280;5542;48.272;10.794;2023-06-14T01:59:45;95239.59;;;14.07;46.84
10978;BME280;5542;48.272;10.794;2023-06-14T02:02:14;95233.78;;;14.05;46.76
10978;BME280;5542;48.272;10.794;2023-06-14T02:04:41;95239.59;;;14.02;46.96
10978;BME280;5542;48.272;10.794;2023-06-14T02:07:08;95240.91;;;14.00;47.13
10978;BME280;5542;48.272;10.794;2023-06-14T02:09:35;95243.28;;;13.96;47.20
10978;BME280;5542;48.272;10.794;2023-06-14T02:12:01;95251.72;;;13.93;47.12
10978;BME280;5542;48.272;10.794;2023-06-14T02:14:29;95241.94;;;13.89;47.06
10978;BME280;5542;48.272;10.794;2023-06-14T02:16:56;95237.44;;;13.84;47.42
10978;BME280;5542;48.272;10.794;2023-06-14T02:19:23;95237.16;;;13.80;47.44
10978;BME280;5542;48.272;10.794;2023-06-14T02:21:50;95234.50;;;13.80;47.38
10978;BME280;5542;48.272;10.794;2023-06-14T02:24:17;95237.16;;;13.80;47.22
10978;BME280;5542;48.272;10.794;2023-06-14T02:26:43;95236.63;;;13.78;47.34
10978;BME280;5542;48.272;10.794;2023-06-14T02:29:10;95238.97;;;13.70;47.39
10978;BME280;5542;48.272;10.794;2023-06-14T02:31:41;95245.84;;;13.71;47.51
10978;BME280;5542;48.272;10.794;2023-06-14T02:34:08;95243.75;;;13.73;47.56
10978;BME280;5542;48.272;10.794;2023-06-14T02:36:34;95249.25;;;13.66;47.54
10978;BME280;5542;48.272;10.794;2023-06-14T02:39:07;95249.78;;;13.63;47.67
10978;BME280;5542;48.272;10.794;2023-06-14T02:41:34;95251.09;;;13.61;47.75
10978;BME280;5542;48.272;10.794;2023-06-14T02:44:01;95247.91;;;13.53;47.73
10978;BME280;5542;48.272;10.794;2023-06-14T02:46:28;95252.34;;;13.48;47.80
10978;BME280;5542;48.272;10.794;2023-06-14T02:48:56;95254.72;;;13.44;47.97
10978;BME280;5542;48.272;10.794;2023-06-14T02:51:23;95255.75;;;13.43;47.95
10978;BME280;5542;48.272;10.794;2023-06-14T02:53:49;95247.28;;;13.36;48.44
10978;BME280;5542;48.272;10.794;2023-06-14T02:56:16;95252.00;;;13.29;48.51
10978;BME280;5542;48.272;10.794;2023-06-14T02:58:44;95245.41;;;13.26;48.70
10978;BME280;5542;48.272;10.794;2023-06-14T03:01:11;95249.88;;;13.26;48.88
10978;BME280;5542;48.272;10.794;2023-06-14T03:03:39;95251.97;;;13.24;49.17
10978;BME280;5542;48.272;10.794;2023-06-14T03:06:07;95243.75;;;13.20;49.67
10978;BME280;5542;48.272;10.794;2023-06-14T03:08:34;95252.94;;;13.13;49.76
10978;BME280;5542;48.272;10.794;2023-06-14T03:11:04;95251.59;;;13.10;50.09
10978;BME280;5542;48.272;10.794;2023-06-14T03:13:31;95249.47;;;13.07;50.09
10978;BME280;5542;48.272;10.794;2023-06-14T03:15:58;95257.34;;;12.97;50.16
10978;BME280;5542;48.272;10.794;2023-06-14T03:18:27;95250.19;;;12.92;50.38
10978;BME280;5542;48.272;10.794;2023-06-14T03:20:54;95254.66;;;12.92;50.81
10978;BME280;5542;48.272;10.794;2023-06-14T03:23:23;95262.28;;;12.88;51.07
10978;BME280;5542;48.272;10.794;2023-06-14T03:25:50;95248.53;;;12.86;51.21
10978;BME280;5542;48.272;10.794;2023-06-14T03:28:17;95249.38;;;12.87;51.24
10978;BME280;5542;48.272;10.794;2023-06-14T03:30:44;95253.78;;;12.81;51.56
10978;BME280;5542;48.272;10.794;2023-06-14T03:33:10;95260.09;;;12.75;51.86
10978;BME280;5542;48.272;10.794;2023-06-14T03:35:37;95263.22;;;12.72;52.11
10978;BME280;5542;48.272;10.794;2023-06-14T03:38:03;95256.91;;;12.73;52.21
10978;BME280;5542;48.272;10.794;2023-06-14T03:40:31;95257.94;;;12.72;52.33
10978;BME280;5542;48.272;10.794;2023-06-14T03:42:58;95267.16;;;12.69;52.68
10978;BME280;5542;48.272;10.794;2023-06-14T03:45:25;95266.38;;;12.69;52.39
10978;BME280;5542;48.272;10.794;2023-06-14T03:47:51;95263.47;;;12.70;52.33
10978;BME280;5542;48.272;10.794;2023-06-14T03:50:18;95274.59;;;12.72;51.96
10978;BME280;5542;48.272;10.794;2023-06-14T03:52:44;95280.63;;;12.68;52.36
10978;BME280;5542;48.272;10.794;2023-06-14T03:55:11;95284.84;;;12.69;52.47
10978;BME280;5542;48.272;10.794;2023-06-14T03:57:40;95290.13;;;12.69;52.53
10978;BME280;5542;48.272;10.794;2023-06-14T04:00:08;95290.34;;;12.67;52.67
10978;BME280;5542;48.272;10.794;2023-06-14T04:02:36;95296.06;;;12.54;53.51
10978;BME280;5542;48.272;10.794;2023-06-14T04:05:03;95296.97;;;12.38;54.09
10978;BME280;5542;48.272;10.794;2023-06-14T04:07:30;95298.16;;;12.25;54.59
10978;BME280;5542;48.272;10.794;2023-06-14T04:09:57;95299.94;;;12.19;55.09
10978;BME280;5542;48.272;10.794;2023-06-14T04:12:24;95299.75;;;12.26;54.77
10978;BME280;5542;48.272;10.794;2023-06-14T04:14:53;95296.66;;;12.34;54.55
10978;BME280;5542;48.272;10.794;2023-06-14T04:17:19;95307.56;;;12.43;54.61
10978;BME280;5542;48.272;10.794;2023-06-14T04:19:46;95311.84;;;12.49;54.45
10978;BME280;5542;48.272;10.794;2023-06-14T04:22:12;95305.56;;;12.55;54.54
10978;BME280;5542;48.272;10.794;2023-06-14T04:24:39;95309.78;;;12.56;54.43
10978;BME280;5542;48.272;10.794;2023-06-14T04:27:07;95306.88;;;12.57;54.37
10978;BME280;5542;48.272;10.794;2023-06-14T04:29:34;95306.41;;;12.61;54.49
10978;BME280;5542;48.272;10.794;2023-06-14T04:32:02;95305.91;;;12.64;54.53
10978;BME280;5542;48.272;10.794;2023-06-14T04:34:31;95317.03;;;12.71;54.64
10978;BME280;5542;48.272;10.794;2023-06-14T04:36:59;95323.16;;;12.76;54.62
10978;BME280;5542;48.272;10.794;2023-06-14T04:39:26;95324.25;;;12.80;54.50
10978;BME280;5542;48.272;10.794;2023-06-14T04:41:53;95318.16;;;12.80;54.24
10978;BME280;5542;48.272;10.794;2023-06-14T04:44:23;95325.34;;;12.85;54.39
10978;BME280;5542;48.272;10.794;2023-06-14T04:46:55;95331.44;;;12.90;54.39
10978;BME280;5542;48.272;10.794;2023-06-14T04:49:25;95331.72;;;12.89;53.73
10978;BME280;5542;48.272;10.794;2023-06-14T04:51:52;95337.13;;;12.77;53.82
10978;BME280;5542;48.272;10.794;2023-06-14T04:54:22;95338.66;;;12.68;54.63
10978;BME280;5542;48.272;10.794;2023-06-14T04:56:50;95335.53;;;12.44;55.56
10978;BME280;5542;48.272;10.794;2023-06-14T04:59:18;95342.94;;;12.47;55.96
10978;BME280;5542;48.272;10.794;2023-06-14T05:01:45;95341.13;;;12.52;55.95
10978;BME280;5542;48.272;10.794;2023-06-14T05:04:13;95341.22;;;12.63;55.94
10978;BME280;5542;48.272;10.794;2023-06-14T05:06:41;95341.84;;;12.70;56.13
10978;BME280;5542;48.272;10.794;2023-06-14T05:09:10;95348.78;;;12.81;56.18
10978;BME280;5542;48.272;10.794;2023-06-14T05:11:36;95348.00;;;12.80;56.30
10978;BME280;5542;48.272;10.794;2023-06-14T05:14:03;95347.75;;;12.82;56.63
10978;BME280;5542;48.272;10.794;2023-06-14T05:16:29;95353.56;;;12.84;56.33
10978;BME280;5542;48.272;10.794;2023-06-14T05:18:56;95341.50;;;12.93;56.82
10978;BME280;5542;48.272;10.794;2023-06-14T05:21:23;95342.69;;;13.07;56.37
10978;BME280;5542;48.272;10.794;2023-06-14T05:23:51;95339.78;;;13.09;55.79
10978;BME280;5542;48.272;10.794;2023-06-14T05:26:19;95344.84;;;13.16;55.64
10978;BME280;5542;48.272;10.794;2023-06-14T05:28:45;95341.84;;;13.02;56.25
10978;BME280;5542;48.272;10.794;2023-06-14T05:31:12;95343.94;;;13.32;55.02
10978;BME280;5542;48.272;10.794;2023-06-14T05:33:38;95347.69;;;13.41;55.35
10978;BME280;5542;48.272;10.794;2023-06-14T05:36:05;95348.94;;;13.33;54.09
10978;BME280;5542;48.272;10.794;2023-06-14T05:38:32;95352.91;;;13.31;55.55
10978;BME280;5542;48.272;10.794;2023-06-14T05:41:00;95360.38;;;13.39;56.18
10978;BME280;5542;48.272;10.794;2023-06-14T05:43:26;95357.88;;;13.65;56.50
10978;BME280;5542;48.272;10.794;2023-06-14T05:45:53;95360.63;;;13.90;55.90
10978;BME280;5542;48.272;10.794;2023-06-14T05:48:19;95356.63;;;13.82;56.72
10978;BME280;5542;48.272;10.794;2023-06-14T05:50:46;95366.50;;;14.02;56.54
10978;BME280;5542;48.272;10.794;2023-06-14T05:53:13;95364.81;;;13.86;56.63
10978;BME280;5542;48.272;10.794;2023-06-14T05:55:39;95369.47;;;14.16;56.18
10978;BME280;5542;48.272;10.794;2023-06-14T05:58:08;95364.75;;;14.33;56.56
10978;BME280;5542;48.272;10.794;2023-06-14T06:00:35;95368.28;;;14.49;54.54
10978;BME280;5542;48.272;10.794;2023-06-14T06:03:02;95368.75;;;14.36;55.75
10978;BME280;5542;48.272;10.794;2023-06-14T06:05:29;95368.75;;;14.46;55.96
10978;BME280;5542;48.272;10.794;2023-06-14T06:07:55;95366.72;;;14.53;54.95
10978;BME280;5542;48.272;10.794;2023-06-14T06:10:22;95364.88;;;14.69;54.60
10978;BME280;5542;48.272;10.794;2023-06-14T06:12:48;95367.28;;;14.86;54.29
10978;BME280;5542;48.272;10.794;2023-06-14T06:15:18;95365.69;;;15.21;53.79
10978;BME280;5542;48.272;10.794;2023-06-14T06:17:46;95364.09;;;15.45;49.40
10978;BME280;5542;48.272;10.794;2023-06-14T06:20:13;95363.28;;;15.45;50.83
10978;BME280;5542;48.272;10.794;2023-06-14T06:22:39;95359.03;;;15.69;49.35
10978;BME280;5542;48.272;10.794;2023-06-14T06:25:07;95360.34;;;15.82;48.88
10978;BME280;5542;48.272;10.794;2023-06-14T06:27:34;95360.25;;;16.02;48.72
10978;BME280;5542;48.272;10.794;2023-06-14T06:30:01;95372.59;;;16.32;48.20
10978;BME280;5542;48.272;10.794;2023-06-14T06:32:29;95365.66;;;16.42;48.33
10978;BME280;5542;48.272;10.794;2023-06-14T06:34:55;95359.44;;;16.72;45.13
10978;BME280;5542;48.272;10.794;2023-06-14T06:37:22;95357.03;;;16.65;46.76
10978;BME280;5542;48.272;10.794;2023-06-14T06:39:48;95364.47;;;16.68;46.81
10978;BME280;5542;48.272;10.794;2023-06-14T06:42:15;95359.44;;;16.72;46.16
10978;BME280;5542;48.272;10.794;2023-06-14T06:44:42;95361.69;;;16.88;45.01
10978;BME280;5542;48.272;10.794;2023-06-14T06:47:08;95366.13;;;16.98;45.47
10978;BME280;5542;48.272;10.794;2023-06-14T06:49:37;95367.03;;;17.18;44.11
10978;BME280;5542;48.272;10.794;2023-06-14T06:52:06;95370.22;;;17.20;44.43
10978;BME280;5542;48.272;10.794;2023-06-14T06:54:33;95367.41;;;17.40;44.15
10978;BME280;5542;48.272;10.794;2023-06-14T06:57:00;95362.81;;;17.46;44.87
10978;BME280;5542;48.272;10.794;2023-06-14T06:59:27;95374.72;;;18.06;44.19
10978;BME280;5542;48.272;10.794;2023-06-14T07:01:54;95362.44;;;18.10;42.71
10978;BME280;5542;48.272;10.794;2023-06-14T07:04:20;95363.22;;;18.35;42.57
10978;BME280;5542;48.272;10.794;2023-06-14T07:06:48;95362.78;;;18.65;41.40
10978;BME280;5542;48.272;10.794;2023-06-14T07:09:15;95367.22;;;18.75;41.90
10978;BME280;5542;48.272;10.794;2023-06-14T07:11:42;95367.66;;;19.01;41.93
10978;BME280;5542;48.272;10.794;2023-06-14T07:14:09;95363.41;;;19.33;41.22
10978;BME280;5542;48.272;10.794;2023-06-14T07:16:37;95362.19;;;19.58;37.64
10978;BME280;5542;48.272;10.794;2023-06-14T07:19:03;95365.03;;;19.80;39.82
10978;BME280;5542;48.272;10.794;2023-06-14T07:21:30;95372.06;;;19.90;39.69
10978;BME280;5542;48.272;10.794;2023-06-14T07:23:58;95376.22;;;20.10;37.67
10978;BME280;5542;48.272;10.794;2023-06-14T07:26:25;95373.34;;;20.20;40.39
10978;BME280;5542;48.272;10.794;2023-06-14T07:28:51;95371.09;;;20.77;37.49
10978;BME280;5542;48.272;10.794;2023-06-14T07:31:18;95373.06;;;21.08;36.01
10978;BME280;5542;48.272;10.794;2023-06-14T07:33:45;95366.91;;;20.99;35.33
10978;BME280;5542;48.272;10.794;2023-06-14T07:36:12;95370.59;;;20.89;36.31
10978;BME280;5542;48.272;10.794;2023-06-14T07:38:38;95367.81;;;21.39;37.19
10978;BME280;5542;48.272;10.794;2023-06-14T07:41:07;95371.38;;;22.19;35.95
10978;BME280;5542;48.272;10.794;2023-06-14T07:43:33;95367.06;;;22.58;33.94
10978;BME280;5542;48.272;10.794;2023-06-14T07:46:00;95365.19;;;22.67;33.11
10978;BME280;5542;48.272;10.794;2023-06-14T07:48:27;95375.97;;;22.18;33.21
10978;BME280;5542;48.272;10.794;2023-06-14T07:50:53;95370.97;;;21.94;32.89
10978;BME280;5542;48.272;10.794;2023-06-14T07:53:20;95378.22;;;22.03;34.37
10978;BME280;5542;48.272;10.794;2023-06-14T07:55:47;95384.63;;;22.24;33.26
10978;BME280;5542;48.272;10.794;2023-06-14T07:58:15;95378.97;;;22.26;35.14
10978;BME280;5542;48.272;10.794;2023-06-14T08:00:41;95384.88;;;22.62;33.59
10978;BME280;5542;48.272;10.794;2023-06-14T08:03:08;95374.78;;;22.59;32.25
10978;BME280;5542;48.272;10.794;2023-06-14T08:05:35;95388.44;;;23.23;37.86
10978;BME280;5542;48.272;10.794;2023-06-14T08:08:01;95367.84;;;23.71;32.07
10978;BME280;5542;48.272;10.794;2023-06-14T08:10:28;95365.50;;;23.61;29.99
10978;BME280;5542;48.272;10.794;2023-06-14T08:12:56;95368.06;;;23.31;29.82
10978;BME280;5542;48.272;10.794;2023-06-14T08:15:24;95373.44;;;22.96;31.64
10978;BME280;5542;48.272;10.794;2023-06-14T08:17:51;95376.44;;;22.95;31.48
10978;BME280;5542;48.272;10.794;2023-06-14T08:20:17;95386.66;;;22.75;34.29
10978;BME280;5542;48.272;10.794;2023-06-14T08:22:44;95376.13;;;22.96;33.02
10978;BME280;5542;48.272;10.794;2023-06-14T08:25:13;95383.31;;;22.79;31.08
10978;BME280;5542;48.272;10.794;2023-06-14T08:27:40;95368.16;;;22.48;31.86
10978;BME280;5542;48.272;10.794;2023-06-14T08:30:08;95374.03;;;22.76;32.27
10978;BME280;5542;48.272;10.794;2023-06-14T08:32:36;95377.22;;;22.95;30.41
10978;BME280;5542;48.272;10.794;2023-06-14T08:35:04;95386.81;;;22.88;31.93
10978;BME280;5542;48.272;10.794;2023-06-14T08:37:31;95394.22;;;22.82;32.67
10978;BME280;5542;48.272;10.794;2023-06-14T08:39:58;95385.69;;;22.71;32.63
10978;BME280;5542;48.272;10.794;2023-06-14T08:42:25;95388.09;;;23.25;32.05
10978;BME280;5542;48.272;10.794;2023-06-14T08:44:52;95386.66;;;23.54;34.22
10978;BME280;5542;48.272;10.794;2023-06-14T08:47:19;95387.13;;;24.11;31.78
10978;BME280;5542;48.272;10.794;2023-06-14T08:49:47;95387.47;;;24.10;28.58
10978;BME280;5542;48.272;10.794;2023-06-14T08:52:16;95384.56;;;23.59;28.81
10978;BME280;5542;48.272;10.794;2023-06-14T08:54:46;95386.38;;;23.12;30.08
10978;BME280;5542;48.272;10.794;2023-06-14T08:57:14;95384.50;;;23.12;30.05
10978;BME280;5542;48.272;10.794;2023-06-14T08:59:46;95402.47;;;23.46;32.87
10978;BME280;5542;48.272;10.794;2023-06-14T09:02:14;95381.91;;;23.59;28.12
10978;BME280;5542;48.272;10.794;2023-06-14T09:04:43;95387.88;;;23.73;28.54
10978;BME280;5542;48.272;10.794;2023-06-14T09:07:11;95383.63;;;23.81;29.65
10978;BME280;5542;48.272;10.794;2023-06-14T09:09:39;95385.69;;;24.22;31.67
10978;BME280;5542;48.272;10.794;2023-06-14T09:12:07;95388.09;;;24.07;29.64
10978;BME280;5542;48.272;10.794;2023-06-14T09:14:35;95390.03;;;23.97;29.77
10978;BME280;5542;48.272;10.794;2023-06-14T09:17:04;95385.41;;;24.45;29.63
10978;BME280;5542;48.272;10.794;2023-06-14T09:19:30;95383.88;;;24.35;26.77
10978;BME280;5542;48.272;10.794;2023-06-14T09:21:57;95380.28;;;24.61;29.44
10978;BME280;5542;48.272;10.794;2023-06-14T09:24:25;95385.56;;;25.20;27.91
10978;BME280;5542;48.272;10.794;2023-06-14T09:26:53;95380.53;;;24.97;27.68
10978;BME280;5542;48.272;10.794;2023-06-14T09:29:20;95384.41;;;25.09;28.22
10978;BME280;5542;48.272;10.794;2023-06-14T09:31:47;95382.88;;;25.41;25.27
10978;BME280;5542;48.272;10.794;2023-06-14T09:34:13;95383.00;;;24.82;24.50
10978;BME280;5542;48.272;10.794;2023-06-14T09:36:43;95381.25;;;24.26;24.15
10978;BME280;5542;48.272;10.794;2023-06-14T09:39:10;95387.38;;;24.36;27.42
10978;BME280;5542;48.272;10.794;2023-06-14T09:41:39;95379.22;;;24.53;23.27
10978;BME280;5542;48.272;10.794;2023-06-14T09:44:07;95373.53;;;24.16;23.79
10978;BME280;5542;48.272;10.794;2023-06-14T09:46:35;95389.53;;;24.13;23.44
10978;BME280;5542;48.272;10.794;2023-06-14T09:49:03;95398.88;;;24.45;25.14
10978;BME280;5542;48.272;10.794;2023-06-14T09:51:30;95389.28;;;24.65;26.19
10978;BME280;5542;48.272;10.794;2023-06-14T09:53:59;95394.53;;;25.12;28.40
10978;BME280;5542;48.272;10.794;2023-06-14T09:56:27;95392.00;;;25.27;24.12
10978;BME280;5542;48.272;10.794;2023-06-14T09:58:56;95388.75;;;24.92;24.35
10978;BME280;5542;48.272;10.794;2023-06-14T10:01:24;95385.16;;;24.67;23.86
10978;BME280;5542;48.272;10.794;2023-06-14T10:03:55;95384.53;;;24.41;24.04
10978;BME280;5542;48.272;10.794;2023-06-14T10:06:23;95382.72;;;24.45;23.78
10978;BME280;5542;48.272;10.794;2023-06-14T10:08:52;95392.63;;;24.83;24.06
10978;BME280;5542;48.272;10.794;2023-06-14T10:11:21;95381.47;;;24.51;22.97
10978;BME280;5542;48.272;10.794;2023-06-14T10:13:49;95385.66;;;24.31;25.52
10978;BME280;5542;48.272;10.794;2023-06-14T10:16:23;95392.91;;;24.31;25.61
10978;BME280;5542;48.272;10.794;2023-06-14T10:18:59;95387.72;;;24.25;24.03
10978;BME280;5542;48.272;10.794;2023-06-14T10:21:33;95382.38;;;23.79;25.88
10978;BME280;5542;48.272;10.794;2023-06-14T10:24:07;95385.34;;;23.86;27.37
10978;BME280;5542;48.272;10.794;2023-06-14T10:26:50;95380.09;;;23.98;24.52
10978;BME280;5542;48.272;10.794;2023-06-14T10:29:17;95381.63;;;23.35;25.13
10978;BME280;5542;48.272;10.794;2023-06-14T10:31:46;95385.25;;;23.21;25.45
10978;BME280;5542;48.272;10.794;2023-06-14T10:34:21;95381.00;;;23.46;28.16
10978;BME280;5542;48.272;10.794;2023-06-14T10:37:00;95380.91;;;24.28;24.75
10978;BME280;5542;48.272;10.794;2023-06-14T10:39:28;95370.31;;;24.32;23.97
10978;BME280;5542;48.272;10.794;2023-06-14T10:41:56;95378.22;;;24.28;23.69
10978;BME280;5542;48.272;10.794;2023-06-14T10:44:45;95373.00;;;24.32;24.76
10978;BME280;5542;48.272;10.794;2023-06-14T10:47:24;95365.41;;;24.63;23.46
10978;BME280;5542;48.272;10.794;2023-06-14T10:49:52;95374.00;;;24.77;24.28
10978;BME280;5542;48.272;10.794;2023-06-14T10:52:25;95371.09;;;24.41;24.48
10978;BME280;5542;48.272;10.794;2023-06-14T10:55:00;95379.09;;;23.64;24.85
10978;BME280;5542;48.272;10.794;2023-06-14T10:57:26;95381.63;;;23.43;24.88
10978;BME280;5542;48.272;10.794;2023-06-14T10:59:53;95382.84;;;23.55;26.10
10978;BME280;5542;48.272;10.794;2023-06-14T11:05:27;95373.84;;;24.53;26.32
10978;BME280;5542;48.272;10.794;2023-06-14T11:08:18;95369.97;;;25.13;26.85
10978;BME280;5542;48.272;10.794;2023-06-14T11:10:54;95366.94;;;25.69;25.94
10978;BME280;5542;48.272;10.794;2023-06-14T11:13:24;95372.69;;;25.92;22.46
10978;BME280;5542;48.272;10.794;2023-06-14T11:15:51;95368.81;;;25.68;23.35
10978;BME280;5542;48.272;10.794;2023-06-14T11:18:24;95365.50;;;25.17;24.38
10978;BME280;5542;48.272;10.794;2023-06-14T11:20:53;95375.72;;;24.82;24.68
10978;BME280;5542;48.272;10.794;2023-06-14T11:23:21;95368.50;;;24.44;24.53
10978;BME280;5542;48.272;10.794;2023-06-14T11:25:50;95375.75;;;24.52;25.17
10978;BME280;5542;48.272;10.794;2023-06-14T11:28:16;95370.56;;;24.68;25.75
10978;BME280;5542;48.272;10.794;2023-06-14T11:30:45;95374.88;;;24.90;28.02
10978;BME280;5542;48.272;10.794;2023-06-14T11:33:15;95377.09;;;24.88;24.80
10978;BME280;5542;48.272;10.794;2023-06-14T11:35:45;95373.81;;;24.83;25.04
10978;BME280;5542;48.272;10.794;2023-06-14T11:38:11;95368.75;;;24.81;24.58
10978;BME280;5542;48.272;10.794;2023-06-14T11:40:39;95364.84;;;24.78;23.54
10978;BME280;5542;48.272;10.794;2023-06-14T11:43:05;95360.50;;;24.86;25.17
10978;BME280;5542;48.272;10.794;2023-06-14T11:45:32;95372.19;;;24.90;25.26
10978;BME280;5542;48.272;10.794;2023-06-14T11:47:59;95373.19;;;24.26;24.43
10978;BME280;5542;48.272;10.794;2023-06-14T11:50:26;95367.19;;;23.83;25.80
10978;BME280;5542;48.272;10.794;2023-06-14T11:52:55;95369.13;;;23.56;26.08
10978;BME280;5542;48.272;10.794;2023-06-14T11:55:23;95363.44;;;23.49;26.17
10978;BME280;5542;48.272;10.794;2023-06-14T11:57:50;95370.72;;;23.40;26.08
10978;BME280;5542;48.272;10.794;2023-06-14T12:00:18;95359.19;;;23.57;26.14
10978;BME280;5542;48.272;10.794;2023-06-14T12:02:52;95361.25;;;24.07;26.37
10978;BME280;5542;48.272;10.794;2023-06-14T12:05:21;95362.22;;;24.70;25.10
10978;BME280;5542;48.272;10.794;2023-06-14T12:07:48;95362.88;;;24.88;22.80
10978;BME280;5542;48.272;10.794;2023-06-14T12:10:17;95356.09;;;24.82;23.85
10978;BME280;5542;48.272;10.794;2023-06-14T12:12:43;95353.94;;;24.75;23.46
10978;BME280;5542;48.272;10.794;2023-06-14T12:15:10;95358.94;;;24.85;23.85
10978;BME280;5542;48.272;10.794;2023-06-14T12:17:38;95362.34;;;24.44;24.55
10978;BME280;5542;48.272;10.794;2023-06-14T12:20:08;95360.03;;;24.84;26.01
10978;BME280;5542;48.272;10.794;2023-06-14T12:22:36;95362.88;;;25.09;23.93
10978;BME280;5542;48.272;10.794;2023-06-14T12:25:03;95358.22;;;25.18;24.54
10978;BME280;5542;48.272;10.794;2023-06-14T12:27:32;95363.41;;;25.02;23.23
10978;BME280;5542;48.272;10.794;2023-06-14T12:29:59;95358.56;;;25.16;24.00
10978;BME280;5542;48.272;10.794;2023-06-14T12:32:26;95357.38;;;25.59;24.28
10978;BME280;5542;48.272;10.794;2023-06-14T12:34:53;95352.75;;;25.93;24.40
10978;BME280;5542;48.272;10.794;2023-06-14T12:37:20;95350.97;;;26.46;23.26
10978;BME280;5542;48.272;10.794;2023-06-14T12:39:47;95356.34;;;26.58;22.90
10978;BME280;5542;48.272;10.794;2023-06-14T12:42:13;95348.59;;;26.32;21.81
10978;BME280;5542;48.272;10.794;2023-06-14T12:44:42;95356.78;;;25.99;21.72
10978;BME280;5542;48.272;10.794;2023-06-14T12:47:08;95353.41;;;25.90;21.35
10978;BME280;5542;48.272;10.794;2023-06-14T12:49:35;95354.25;;;25.69;22.15
10978;BME280;5542;48.272;10.794;2023-06-14T12:52:02;95357.41;;;25.38;22.76
10978;BME280;5542;48.272;10.794;2023-06-14T12:54:29;95351.19;;;25.25;23.08
10978;BME280;5542;48.272;10.794;2023-06-14T12:56:55;95351.97;;;25.59;23.49
10978;BME280;5542;48.272;10.794;2023-06-14T12:59:22;95354.31;;;25.94;21.55
10978;BME280;5542;48.272;10.794;2023-06-14T13:01:50;95356.13;;;26.02;22.59
10978;BME280;5542;48.272;10.794;2023-06-14T13:04:18;95349.69;;;25.94;23.19
10978;BME280;5542;48.272;10.794;2023-06-14T13:06:45;95352.63;;;26.14;23.18